Time;durP1;ratioP1;P1;durP2;ratioP2;P2;SDS_P1;SDS_P2;PMS_P1;PMS_P2;Temp;Humidity;BMP_temperature;BMP_pressure;BME280_temperature;BME280_humidity;BME280_pressure;Samples;Min_cycle;Max_cycle;Signal;HPM_P1;HPM_P2
2023/06/27 00:01:16;;;;;;;7.23;2.23;;;23.00;40.00;;;;;;5033258;28;20513;-69
2023/06/27 00:03:45;;;;;;;4.60;2.60;;;22.90;40.10;;;;;;5033142;28;20488;-70
2023/06/27 00:06:19;;;;;;;5.23;2.20;;;22.90;40.20;;;;;;5033273;28;20435;-70
2023/06/27 00:08:46;;;;;;;8.00;1.90;;;22.90;40.20;;;;;;5032536;28;20433;-70
2023/06/27 00:11:13;;;;;;;3.27;2.13;;;22.80;40.10;;;;;;5035171;28;20435;-70
2023/06/27 00:13:41;;;;;;;2.80;1.80;;;22.80;40.00;;;;;;5037286;28;20434;-70
2023/06/27 00:16:12;;;;;;;5.87;2.40;;;22.80;39.70;;;;;;5036912;28;20426;-69
2023/06/27 00:18:40;;;;;;;6.07;2.37;;;22.80;39.80;;;;;;5036867;28;20481;-70
2023/06/27 00:21:08;;;;;;;5.60;2.33;;;22.80;39.30;;;;;;5036946;28;20493;-70
2023/06/27 00:23:35;;;;;;;5.77;2.60;;;22.80;39.00;;;;;;5037089;28;20426;-69
2023/06/27 00:26:03;;;;;;;5.97;2.77;;;22.70;39.00;;;;;;5036758;28;20470;-69
2023/06/27 00:28:44;;;;;;;5.00;2.23;;;22.70;39.10;;;;;;5037004;28;20462;-69
2023/06/27 00:31:11;;;;;;;5.43;2.57;;;22.70;38.90;;;;;;5037186;28;20422;-69
2023/06/27 00:33:38;;;;;;;6.13;1.83;;;22.70;38.90;;;;;;5036485;28;20920;-70
2023/06/27 00:36:06;;;;;;;5.10;1.73;;;22.70;38.70;;;;;;5036859;28;20820;-70
2023/06/27 00:38:34;;;;;;;4.90;1.70;;;22.60;38.90;;;;;;5036860;28;20438;-70
2023/06/27 00:41:01;;;;;;;4.60;2.07;;;22.60;38.90;;;;;;5035849;28;20437;-70
2023/06/27 00:43:31;;;;;;;4.27;1.70;;;22.60;39.00;;;;;;5035188;28;20482;-70
2023/06/27 00:45:59;;;;;;;4.07;2.10;;;22.60;38.90;;;;;;5036803;28;20440;-69
2023/06/27 00:48:26;;;;;;;5.43;1.53;;;22.50;38.80;;;;;;5035916;28;20905;-70
2023/06/27 00:50:56;;;;;;;4.87;1.73;;;22.50;38.80;;;;;;5036134;28;20497;-70
2023/06/27 00:53:23;;;;;;;4.90;1.80;;;22.50;38.80;;;;;;5036543;28;20619;-69
2023/06/27 00:55:52;;;;;;;3.80;1.90;;;22.50;38.90;;;;;;5036121;28;20524;-70
2023/06/27 00:58:20;;;;;;;4.90;1.70;;;22.40;39.10;;;;;;5035723;28;20473;-70
2023/06/27 01:00:47;;;;;;;3.13;1.93;;;22.40;39.30;;;;;;5036134;28;20465;-70
2023/06/27 01:03:15;;;;;;;3.37;2.13;;;22.40;39.40;;;;;;5033572;28;20472;-70
2023/06/27 01:05:43;;;;;;;3.70;1.90;;;22.40;39.50;;;;;;5036221;28;20489;-69
2023/06/27 01:08:14;;;;;;;3.27;1.80;;;22.30;39.80;;;;;;5035965;28;20435;-69
2023/06/27 01:10:47;;;;;;;5.93;3.50;;;22.30;40.70;;;;;;5036324;28;20422;-69
2023/06/27 01:13:21;;;;;;;4.60;1.50;;;22.30;40.40;;;;;;5035127;28;20455;-69
2023/06/27 01:15:49;;;;;;;4.80;2.00;;;22.30;40.50;;;;;;5035665;28;20455;-70
2023/06/27 01:18:19;;;;;;;7.63;1.80;;;22.20;40.50;;;;;;5036007;28;20462;-70
2023/06/27 01:20:46;;;;;;;4.33;1.90;;;22.20;40.50;;;;;;5035730;28;20451;-69
2023/06/27 01:23:22;;;;;;;7.30;2.50;;;22.10;40.80;;;;;;5034848;28;20474;-69
2023/06/27 01:25:55;;;;;;;4.40;2.07;;;22.10;41.00;;;;;;5036194;28;20422;-70
2023/06/27 01:28:22;;;;;;;4.63;2.10;;;22.10;41.00;;;;;;5035595;28;20425;-70
2023/06/27 01:30:49;;;;;;;4.63;1.90;;;22.10;41.10;;;;;;5035714;28;20444;-70
2023/06/27 01:33:22;;;;;;;5.60;2.27;;;22.10;41.10;;;;;;5035380;28;20434;-70
2023/06/27 01:35:57;;;;;;;5.93;2.00;;;22.00;41.10;;;;;;5035730;28;20845;-70
2023/06/27 01:38:30;;;;;;;5.30;2.20;;;22.00;41.20;;;;;;5035696;28;20810;-70
2023/06/27 01:40:59;;;;;;;4.33;1.80;;;22.00;41.50;;;;;;5035753;28;20419;-70
2023/06/27 01:43:28;;;;;;;3.80;1.67;;;22.00;41.50;;;;;;5034953;28;20483;-70
2023/06/27 01:45:57;;;;;;;3.27;2.13;;;22.00;41.70;;;;;;5035579;28;20439;-70
2023/06/27 01:48:25;;;;;;;6.93;1.87;;;22.00;41.70;;;;;;5035070;28;20477;-70
2023/06/27 01:50:54;;;;;;;4.60;2.50;;;22.00;41.70;;;;;;5035469;28;20769;-70
2023/06/27 01:53:21;;;;;;;6.63;2.23;;;22.00;41.70;;;;;;5035495;28;20484;-69
2023/06/27 01:55:48;;;;;;;4.90;2.23;;;22.00;41.80;;;;;;5034978;28;20960;-69
2023/06/27 01:58:17;;;;;;;4.73;2.00;;;22.00;41.80;;;;;;5035014;28;20445;-70
2023/06/27 02:00:44;;;;;;;3.93;1.80;;;21.90;41.80;;;;;;5035176;28;20488;-70
2023/06/27 02:03:11;;;;;;;3.57;1.60;;;21.90;42.10;;;;;;5033053;28;20552;-70
2023/06/27 02:05:38;;;;;;;3.63;1.83;;;21.80;42.70;;;;;;5034782;28;20924;-69
2023/06/27 02:08:05;;;;;;;7.63;1.87;;;21.80;42.20;;;;;;5035145;28;20433;-69
2023/06/27 02:10:32;;;;;;;4.90;2.27;;;21.80;42.30;;;;;;5035130;28;20824;-70
2023/06/27 02:13:00;;;;;;;3.43;1.70;;;21.80;42.90;;;;;;5034626;28;20433;-69
2023/06/27 02:15:28;;;;;;;5.33;2.00;;;21.80;43.30;;;;;;5035363;28;20466;-70
2023/06/27 02:17:55;;;;;;;5.83;1.93;;;21.70;43.50;;;;;;5034799;28;20453;-70
2023/06/27 02:20:22;;;;;;;6.40;2.67;;;21.70;43.50;;;;;;5034500;28;20986;-70
2023/06/27 02:22:49;;;;;;;9.00;2.60;;;21.70;43.40;;;;;;5034393;28;20498;-70
2023/06/27 02:25:16;;;;;;;6.20;2.37;;;21.70;43.50;;;;;;5034934;28;20496;-70
2023/06/27 02:27:43;;;;;;;3.73;2.27;;;21.70;43.40;;;;;;5034381;28;20473;-70
2023/06/27 02:30:11;;;;;;;3.87;1.73;;;21.70;43.50;;;;;;5033323;28;20470;-70
2023/06/27 02:32:39;;;;;;;8.70;2.00;;;21.70;43.20;;;;;;5031068;28;20465;-70
2023/06/27 02:35:07;;;;;;;5.47;2.00;;;21.60;43.20;;;;;;5032399;28;20489;-71
2023/06/27 02:37:34;;;;;;;3.13;2.07;;;21.60;43.20;;;;;;5033236;28;20445;-70
2023/06/27 02:40:01;;;;;;;8.23;1.70;;;21.60;43.30;;;;;;5033142;28;20837;-70
2023/06/27 02:42:28;;;;;;;6.17;2.53;;;21.60;43.30;;;;;;5034041;28;20831;-70
2023/06/27 02:44:55;;;;;;;5.43;2.20;;;21.60;43.40;;;;;;5033199;28;20470;-70
2023/06/27 02:47:22;;;;;;;4.17;1.40;;;21.60;43.50;;;;;;5034292;28;20466;-70
2023/06/27 02:49:51;;;;;;;4.03;1.57;;;21.60;43.50;;;;;;5033386;28;20431;-70
2023/06/27 02:52:18;;;;;;;6.67;2.10;;;21.60;43.80;;;;;;5033986;28;20478;-70
2023/06/27 02:54:45;;;;;;;5.20;2.33;;;21.60;45.50;;;;;;5034145;28;20496;-69
2023/06/27 02:57:12;;;;;;;5.83;1.80;;;21.50;47.50;;;;;;5034197;28;20493;-70
2023/06/27 02:59:39;;;;;;;6.87;2.00;;;21.50;48.70;;;;;;5033325;28;20480;-74
2023/06/27 03:02:06;;;;;;;4.80;1.90;;;21.50;48.00;;;;;;5033882;28;20441;-70
2023/06/27 03:04:33;;;;;;;3.87;2.17;;;21.40;48.40;;;;;;5033763;28;20464;-69
2023/06/27 03:07:01;;;;;;;3.60;1.90;;;21.40;48.60;;;;;;5033995;28;20476;-70
2023/06/27 03:09:28;;;;;;;4.77;1.73;;;21.30;48.20;;;;;;5033976;28;20429;-70
2023/06/27 03:11:55;;;;;;;5.83;2.17;;;21.30;48.50;;;;;;5032982;28;20477;-69
2023/06/27 03:14:22;;;;;;;8.13;2.50;;;21.20;47.40;;;;;;5031466;28;20841;-70
2023/06/27 03:16:49;;;;;;;4.50;1.90;;;21.20;47.70;;;;;;5033806;28;20834;-70
2023/06/27 03:19:16;;;;;;;3.27;1.53;;;21.20;48.20;;;;;;5033422;28;20430;-70
2023/06/27 03:21:43;;;;;;;4.07;2.00;;;21.10;48.90;;;;;;5033128;28;20439;-69
2023/06/27 03:24:11;;;;;;;5.80;2.90;;;21.10;48.90;;;;;;5033707;28;20487;-69
2023/06/27 03:26:38;;;;;;;3.10;1.97;;;21.10;48.30;;;;;;5033679;28;20819;-70
2023/06/27 03:29:05;;;;;;;5.60;2.30;;;21.10;48.40;;;;;;5033311;28;20944;-70
2023/06/27 03:31:32;;;;;;;7.57;2.20;;;21.10;48.80;;;;;;5032427;28;20435;-70
2023/06/27 03:33:59;;;;;;;4.77;2.47;;;21.00;49.30;;;;;;5033113;28;20500;-69
2023/06/27 03:36:28;;;;;;;7.97;2.57;;;21.00;49.20;;;;;;5033537;28;20473;-70
2023/06/27 03:38:55;;;;;;;7.70;3.13;;;21.00;49.30;;;;;;5033045;28;20521;-70
2023/06/27 03:41:24;;;;;;;6.33;2.97;;;21.00;49.30;;;;;;5032874;28;20466;-70
2023/06/27 03:43:51;;;;;;;6.93;2.87;;;21.00;49.60;;;;;;5032994;28;20512;-70
2023/06/27 03:46:18;;;;;;;12.23;2.43;;;21.00;49.90;;;;;;5032792;28;20473;-70
2023/06/27 03:48:45;;;;;;;9.47;2.37;;;21.00;49.60;;;;;;5033375;28;20795;-70
2023/06/27 03:51:12;;;;;;;4.63;1.77;;;20.90;49.90;;;;;;5032779;28;20454;-70
2023/06/27 03:53:38;;;;;;;4.13;2.37;;;20.80;50.20;;;;;;5033365;28;20462;-70
2023/06/27 03:56:06;;;;;;;5.33;2.13;;;20.70;50.90;;;;;;5033036;28;20502;-70
2023/06/27 03:58:34;;;;;;;3.90;2.63;;;20.60;51.20;;;;;;5033362;28;20461;-70
2023/06/27 04:01:01;;;;;;;4.67;2.50;;;20.60;51.40;;;;;;5032690;28;20471;-69
2023/06/27 04:03:28;;;;;;;5.80;2.00;;;20.50;51.50;;;;;;5033434;28;20497;-70
2023/06/27 04:05:55;;;;;;;6.40;2.70;;;20.30;51.70;;;;;;5033367;28;20480;-70
2023/06/27 04:08:22;;;;;;;4.90;2.13;;;20.30;51.90;;;;;;5033184;28;20778;-70
2023/06/27 04:10:48;;;;;;;7.43;2.30;;;20.30;52.30;;;;;;5032570;28;20458;-70
2023/06/27 04:13:15;;;;;;;6.40;2.87;;;20.20;52.70;;;;;;5033305;28;20503;-70
2023/06/27 04:15:44;;;;;;;5.37;2.20;;;20.10;52.90;;;;;;5033189;28;20437;-70
2023/06/27 04:18:10;;;;;;;4.20;2.37;;;20.10;53.00;;;;;;5033515;28;20824;-70
2023/06/27 04:20:37;;;;;;;5.03;1.93;;;20.10;53.30;;;;;;5032339;28;20459;-69
2023/06/27 04:23:05;;;;;;;5.20;2.27;;;20.10;53.50;;;;;;5033076;28;20488;-70
2023/06/27 04:25:33;;;;;;;8.30;2.53;;;20.00;54.10;;;;;;5033460;28;20512;-70
2023/06/27 04:28:00;;;;;;;4.50;2.57;;;19.90;54.30;;;;;;5033409;28;20434;-70
2023/06/27 04:30:27;;;;;;;6.63;2.30;;;19.80;54.80;;;;;;5032845;28;20437;-70
2023/06/27 04:32:58;;;;;;;3.87;2.40;;;19.80;54.90;;;;;;5032987;28;20478;-70
2023/06/27 04:35:25;;;;;;;4.10;2.13;;;19.80;54.80;;;;;;5033390;28;20476;-70
2023/06/27 04:37:52;;;;;;;4.60;2.30;;;19.70;55.20;;;;;;5032982;28;20462;-70
2023/06/27 04:40:20;;;;;;;7.70;2.27;;;19.70;55.30;;;;;;5032395;28;20436;-70
2023/06/27 04:42:47;;;;;;;4.90;2.40;;;19.80;55.30;;;;;;5032666;28;20947;-70
2023/06/27 04:45:14;;;;;;;6.90;2.70;;;19.60;55.50;;;;;;5032999;28;20903;-70
2023/06/27 04:47:42;;;;;;;5.00;2.00;;;19.60;55.70;;;;;;5033194;28;20426;-70
2023/06/27 04:50:14;;;;;;;3.90;2.37;;;19.50;55.80;;;;;;5030951;28;20440;-69
2023/06/27 04:52:42;;;;;;;8.67;2.30;;;19.30;56.20;;;;;;5032761;28;20425;-69
2023/06/27 04:55:09;;;;;;;7.97;2.30;;;19.30;56.60;;;;;;5032647;28;20440;-70
2023/06/27 04:57:36;;;;;;;7.00;2.40;;;19.30;56.80;;;;;;5033712;28;20839;-71
2023/06/27 05:00:06;;;;;;;4.70;2.30;;;19.30;56.90;;;;;;5035262;28;20441;-70
2023/06/27 05:02:33;;;;;;;6.17;2.30;;;19.10;57.30;;;;;;5035681;28;20483;-70
2023/06/27 05:05:00;;;;;;;4.57;2.53;;;19.10;57.70;;;;;;5035800;28;20436;-70
2023/06/27 05:07:28;;;;;;;4.33;2.00;;;19.10;57.60;;;;;;5035158;28;20435;-70
2023/06/27 05:09:55;;;;;;;12.50;3.17;;;19.10;57.50;;;;;;5035673;28;20472;-70
2023/06/27 05:12:22;;;;;;;4.20;2.37;;;19.10;57.60;;;;;;5034719;28;20482;-70
2023/06/27 05:14:49;;;;;;;5.87;3.20;;;19.10;57.70;;;;;;5035662;28;20863;-69
2023/06/27 05:17:17;;;;;;;7.67;2.60;;;19.10;57.70;;;;;;5035397;28;20968;-70
2023/06/27 05:19:44;;;;;;;5.07;2.30;;;19.10;58.10;;;;;;5035492;28;20432;-70
2023/06/27 05:22:11;;;;;;;4.87;2.93;;;19.00;58.00;;;;;;5035388;28;20457;-70
2023/06/27 05:24:39;;;;;;;5.57;2.67;;;19.00;58.10;;;;;;5035710;28;20475;-70
2023/06/27 05:27:07;;;;;;;3.83;2.67;;;18.90;58.70;;;;;;5035328;28;20502;-70
2023/06/27 05:29:34;;;;;;;6.03;2.83;;;18.90;59.00;;;;;;5035293;28;20463;-70
2023/06/27 05:32:01;;;;;;;5.90;2.80;;;18.90;59.20;;;;;;5035564;28;20490;-70
2023/06/27 05:34:28;;;;;;;10.63;3.00;;;19.00;59.40;;;;;;5034405;28;20440;-70
2023/06/27 05:37:00;;;;;;;5.60;2.77;;;19.10;59.60;;;;;;5035227;28;20968;-70
2023/06/27 05:39:27;;;;;;;4.93;2.40;;;19.20;59.50;;;;;;5034827;28;20892;-70
2023/06/27 05:41:55;;;;;;;5.03;2.60;;;19.20;59.50;;;;;;5027923;28;20971;-70
2023/06/27 05:44:22;;;;;;;5.53;2.33;;;19.30;59.60;;;;;;5027738;28;20496;-70
2023/06/27 05:46:49;;;;;;;4.73;2.77;;;19.40;59.20;;;;;;5001193;28;20528;-70
2023/06/27 05:49:18;;;;;;;5.03;2.20;;;19.40;59.30;;;;;;5014989;28;20554;-72
2023/06/27 05:51:45;;;;;;;7.57;2.40;;;19.50;59.00;;;;;;5015083;28;20472;-70
2023/06/27 05:54:12;;;;;;;4.53;2.47;;;19.50;59.00;;;;;;5018823;28;20472;-70
2023/06/27 05:56:39;;;;;;;6.40;2.43;;;19.50;59.00;;;;;;5026280;28;20466;-71
2023/06/27 05:59:08;;;;;;;3.50;2.23;;;19.60;59.00;;;;;;5014963;28;20442;-70
2023/06/27 06:01:37;;;;;;;5.20;2.20;;;19.60;59.00;;;;;;5014346;28;20466;-70
2023/06/27 06:04:04;;;;;;;6.40;2.60;;;19.60;58.90;;;;;;5028260;28;20486;-70
2023/06/27 06:06:33;;;;;;;4.03;1.60;;;19.70;58.80;;;;;;5034926;28;20443;-70
2023/06/27 06:09:00;;;;;;;5.13;2.93;;;19.80;58.40;;;;;;5018623;28;20561;-69
2023/06/27 06:11:28;;;;;;;7.00;2.00;;;19.70;58.30;;;;;;5014281;28;20974;-70
2023/06/27 06:13:55;;;;;;;4.07;2.73;;;19.80;58.20;;;;;;5016483;28;20766;-70
2023/06/27 06:16:24;;;;;;;4.87;2.40;;;19.80;58.10;;;;;;5034568;28;20438;-70
2023/06/27 06:18:51;;;;;;;5.60;2.60;;;19.90;58.10;;;;;;5015791;28;20474;-70
2023/06/27 06:21:18;;;;;;;5.17;2.40;;;19.90;58.30;;;;;;5014640;28;20428;-70
2023/06/27 06:23:45;;;;;;;6.63;3.20;;;19.90;57.90;;;;;;5014723;28;20471;-70
2023/06/27 06:26:12;;;;;;;6.80;2.60;;;20.00;58.10;;;;;;5002232;28;20439;-70
2023/06/27 06:28:39;;;;;;;5.67;2.30;;;20.00;58.50;;;;;;5030868;28;20434;-70
2023/06/27 06:31:06;;;;;;;5.27;2.30;;;20.10;58.50;;;;;;5033460;28;20465;-70
2023/06/27 06:33:37;;;;;;;4.90;2.60;;;20.20;58.00;;;;;;5032450;28;20445;-70
2023/06/27 06:36:04;;;;;;;4.37;2.60;;;20.20;57.80;;;;;;5034511;28;20424;-70
2023/06/27 06:38:31;;;;;;;4.30;2.70;;;20.30;58.30;;;;;;5034272;28;20470;-70
2023/06/27 06:40:58;;;;;;;6.40;2.70;;;20.30;57.30;;;;;;5033723;28;20902;-70
2023/06/27 06:43:26;;;;;;;5.30;2.50;;;20.40;57.70;;;;;;5034002;28;20513;-69
2023/06/27 06:45:53;;;;;;;8.07;2.30;;;20.40;57.30;;;;;;5032380;28;20448;-70
2023/06/27 06:48:20;;;;;;;6.40;2.20;;;20.40;56.70;;;;;;5033635;28;20437;-70
2023/06/27 06:50:50;;;;;;;3.57;1.90;;;20.40;57.20;;;;;;5034569;28;20438;-70
2023/06/27 06:53:17;;;;;;;6.93;2.47;;;20.40;56.70;;;;;;5025247;28;20441;-70
2023/06/27 06:55:44;;;;;;;7.00;2.07;;;20.40;56.90;;;;;;5032449;28;20485;-70
2023/06/27 06:58:11;;;;;;;5.53;2.80;;;20.50;57.20;;;;;;5033870;28;20432;-69
2023/06/27 07:00:38;;;;;;;4.10;2.50;;;20.60;56.60;;;;;;5034121;28;20471;-70
2023/06/27 07:03:08;;;;;;;9.70;2.30;;;20.60;56.50;;;;;;5034308;28;20419;-70
2023/06/27 07:05:35;;;;;;;6.23;2.33;;;20.60;56.10;;;;;;5034286;28;20419;-69
2023/06/27 07:08:04;;;;;;;4.50;2.60;;;20.70;56.00;;;;;;5033627;28;20832;-70
2023/06/27 07:10:31;;;;;;;7.10;3.40;;;20.80;56.20;;;;;;5033836;28;20461;-69
2023/06/27 07:12:59;;;;;;;10.00;2.40;;;20.80;56.10;;;;;;5034293;28;20833;-69
2023/06/27 07:15:26;;;;;;;8.93;3.40;;;20.80;55.70;;;;;;5034195;28;20442;-70
2023/06/27 07:17:53;;;;;;;5.17;2.77;;;20.90;55.40;;;;;;5033916;28;20481;-70
2023/06/27 07:20:22;;;;;;;5.37;1.97;;;20.90;55.90;;;;;;5033335;28;20432;-69
2023/06/27 07:22:49;;;;;;;4.47;2.37;;;20.90;55.70;;;;;;5034184;28;20781;-70
2023/06/27 07:25:18;;;;;;;9.23;2.67;;;21.00;55.50;;;;;;5033632;28;20521;-69
2023/06/27 07:27:45;;;;;;;7.83;2.70;;;21.10;55.20;;;;;;5033682;28;20430;-70
2023/06/27 07:30:13;;;;;;;5.27;2.60;;;21.10;55.00;;;;;;5033768;28;20854;-70
2023/06/27 07:32:40;;;;;;;4.90;2.20;;;21.10;54.60;;;;;;5033949;28;20522;-70
2023/06/27 07:35:08;;;;;;;7.70;2.60;;;21.20;54.30;;;;;;5033931;28;20491;-70
2023/06/27 07:37:37;;;;;;;9.53;2.90;;;21.20;54.60;;;;;;5033201;28;20438;-70
2023/06/27 07:40:04;;;;;;;4.57;2.30;;;21.20;54.30;;;;;;5033896;28;20468;-69
2023/06/27 07:42:33;;;;;;;5.03;2.30;;;21.30;54.00;;;;;;5033605;28;20473;-70
2023/06/27 07:45:00;;;;;;;5.27;2.67;;;21.40;53.80;;;;;;5033825;28;20890;-70
2023/06/27 07:47:27;;;;;;;5.73;2.30;;;21.60;54.20;;;;;;5033754;28;20823;-70
2023/06/27 07:49:55;;;;;;;5.27;2.70;;;21.70;54.20;;;;;;5033473;28;20974;-69
2023/06/27 07:52:22;;;;;;;7.00;2.30;;;21.80;52.70;;;;;;5033385;28;20497;-70
2023/06/27 07:54:49;;;;;;;3.47;2.20;;;21.90;52.50;;;;;;5033370;28;20906;-70
2023/06/27 07:57:16;;;;;;;6.00;2.50;;;22.00;53.60;;;;;;5033429;28;20429;-70
2023/06/27 07:59:44;;;;;;;4.87;2.93;;;22.20;52.30;;;;;;5033677;28;20431;-71
2023/06/27 08:02:11;;;;;;;8.20;4.17;;;22.40;52.00;;;;;;5033315;28;20439;-70
2023/06/27 08:04:38;;;;;;;5.40;1.93;;;22.50;52.20;;;;;;5033248;28;20502;-69
2023/06/27 08:07:05;;;;;;;6.47;2.50;;;22.60;51.50;;;;;;5033741;28;20432;-70
2023/06/27 08:09:32;;;;;;;6.50;2.43;;;22.70;51.00;;;;;;5033274;28;20968;-69
2023/06/27 08:11:59;;;;;;;5.10;2.20;;;22.70;51.50;;;;;;5033554;28;20484;-70
2023/06/27 08:14:27;;;;;;;7.10;2.77;;;22.80;51.60;;;;;;5033627;28;20431;-70
2023/06/27 08:16:55;;;;;;;5.33;2.83;;;22.80;50.80;;;;;;5033442;28;20500;-70
2023/06/27 08:19:22;;;;;;;8.70;3.00;;;22.80;51.00;;;;;;5033174;28;20462;-69
2023/06/27 08:21:49;;;;;;;9.80;2.60;;;22.90;51.10;;;;;;5033548;28;20808;-70
2023/06/27 08:24:16;;;;;;;8.60;3.00;;;23.00;50.50;;;;;;5033112;28;20957;-70
2023/06/27 08:26:45;;;;;;;6.63;2.67;;;23.00;50.60;;;;;;5033114;28;20493;-70
2023/06/27 08:29:12;;;;;;;5.20;2.33;;;23.20;50.90;;;;;;5033385;28;20513;-69
2023/06/27 08:31:38;;;;;;;8.80;2.20;;;23.30;51.00;;;;;;5033099;28;20870;-69
2023/06/27 08:34:07;;;;;;;3.87;1.70;;;23.50;49.70;;;;;;5036991;28;20435;-70
2023/06/27 08:36:34;;;;;;;4.90;2.33;;;23.70;48.00;;;;;;5036871;28;20478;-70
2023/06/27 08:39:01;;;;;;;4.03;2.17;;;23.80;46.80;;;;;;5037296;28;20459;-70
2023/06/27 08:41:28;;;;;;;7.13;3.50;;;24.00;47.10;;;;;;5037228;28;20481;-70
2023/06/27 08:43:56;;;;;;;7.93;3.33;;;24.10;46.90;;;;;;5036582;28;20459;-70
2023/06/27 08:46:23;;;;;;;4.93;2.73;;;24.20;46.60;;;;;;5036893;28;20442;-70
2023/06/27 08:48:53;;;;;;;5.70;1.70;;;24.40;46.50;;;;;;5036564;28;20990;-70
2023/06/27 08:51:23;;;;;;;4.40;2.30;;;24.60;46.10;;;;;;5036532;28;20442;-69
2023/06/27 08:53:52;;;;;;;7.23;2.87;;;24.80;45.90;;;;;;5036623;28;20486;-70
2023/06/27 08:56:21;;;;;;;13.93;2.90;;;24.90;43.30;;;;;;5036827;28;20784;-70
2023/06/27 08:58:51;;;;;;;4.20;2.30;;;25.00;43.30;;;;;;5036731;28;20782;-70
2023/06/27 09:01:18;;;;;;;3.63;1.93;;;25.10;44.40;;;;;;5036769;28;20436;-69
2023/06/27 09:03:45;;;;;;;7.20;3.03;;;25.30;44.90;;;;;;5036223;28;20521;-70
2023/06/27 09:06:13;;;;;;;11.00;3.13;;;25.60;42.90;;;;;;5035893;28;20499;-70
2023/06/27 09:08:42;;;;;;;5.50;2.10;;;25.70;41.90;;;;;;5036276;28;20474;-73
2023/06/27 09:11:09;;;;;;;4.00;2.40;;;25.80;42.60;;;;;;5036443;28;20567;-70
2023/06/27 09:13:37;;;;;;;7.90;2.23;;;25.90;41.60;;;;;;5036568;28;20448;-70
2023/06/27 09:16:05;;;;;;;5.53;2.20;;;26.00;40.90;;;;;;5036082;28;20492;-69
2023/06/27 09:18:33;;;;;;;6.40;2.60;;;26.10;40.40;;;;;;5036389;28;20438;-70
2023/06/27 09:21:01;;;;;;;10.63;2.90;;;26.20;41.10;;;;;;5035860;28;20907;-69
2023/06/27 09:23:30;;;;;;;3.40;2.00;;;26.30;41.50;;;;;;5035450;28;20443;-70
2023/06/27 09:26:09;;;;;;;6.90;1.97;;;26.40;40.90;;;;;;5035815;28;20535;-69
2023/06/27 09:28:46;;;;;;;5.73;1.87;;;26.50;40.20;;;;;;5035910;28;20474;-69
2023/06/27 09:31:14;;;;;;;5.90;2.10;;;26.50;39.40;;;;;;5036120;28;20476;-69
2023/06/27 09:33:43;;;;;;;11.17;2.90;;;26.50;39.60;;;;;;5036003;28;20878;-70
2023/06/27 09:36:12;;;;;;;4.07;2.10;;;26.40;39.10;;;;;;5035928;28;20437;-69
2023/06/27 09:38:39;;;;;;;7.90;2.40;;;26.20;39.60;;;;;;5035630;28;20430;-70
2023/06/27 09:41:08;;;;;;;5.47;1.77;;;26.10;39.30;;;;;;5036046;28;20434;-70
2023/06/27 09:43:36;;;;;;;7.43;2.07;;;26.00;38.90;;;;;;5035442;28;20501;-70
2023/06/27 09:46:04;;;;;;;3.97;1.77;;;25.90;39.50;;;;;;5035418;28;20564;-69
2023/06/27 09:48:32;;;;;;;5.67;2.20;;;25.70;39.80;;;;;;5035466;28;20900;-69
2023/06/27 09:50:59;;;;;;;5.13;2.10;;;25.50;40.00;;;;;;5035814;28;20433;-70
2023/06/27 09:53:28;;;;;;;6.33;1.80;;;25.40;40.40;;;;;;5035430;28;20499;-69
2023/06/27 09:55:59;;;;;;;4.17;1.80;;;25.30;40.90;;;;;;5035327;28;20474;-69
2023/06/27 09:58:31;;;;;;;3.60;2.00;;;25.30;40.90;;;;;;5035372;28;20520;-70
2023/06/27 10:01:05;;;;;;;5.00;2.10;;;25.20;40.60;;;;;;5034966;28;20440;-70
2023/06/27 10:03:33;;;;;;;6.57;2.10;;;25.10;40.70;;;;;;5035494;28;20435;-69
2023/06/27 10:06:00;;;;;;;4.70;2.03;;;25.00;41.00;;;;;;5035163;28;20613;-70
2023/06/27 10:08:28;;;;;;;7.13;2.40;;;24.90;40.70;;;;;;5035735;28;20472;-69
2023/06/27 10:10:57;;;;;;;3.80;2.00;;;24.80;41.10;;;;;;5035540;28;20429;-69
2023/06/27 10:13:25;;;;;;;4.80;2.23;;;24.80;41.60;;;;;;5034315;28;20424;-70
2023/06/27 10:15:53;;;;;;;5.77;2.23;;;24.80;41.30;;;;;;5035106;28;20528;-70
2023/06/27 10:18:21;;;;;;;3.30;1.63;;;24.90;41.80;;;;;;5034941;28;20843;-70
2023/06/27 10:20:48;;;;;;;5.13;2.23;;;24.90;41.80;;;;;;5034832;28;20464;-69
2023/06/27 10:23:16;;;;;;;4.20;2.00;;;24.90;41.60;;;;;;5034928;28;20938;-70
2023/06/27 10:25:44;;;;;;;3.53;1.70;;;24.90;40.60;;;;;;5034943;28;20563;-70
2023/06/27 10:28:17;;;;;;;4.50;2.10;;;24.80;40.60;;;;;;5034809;28;20468;-69
2023/06/27 10:30:46;;;;;;;4.87;1.97;;;24.80;40.20;;;;;;5035126;28;20455;-69
2023/06/27 10:33:28;;;;;;;4.90;1.70;;;24.70;40.20;;;;;;5035011;28;20459;-69
2023/06/27 10:36:00;;;;;;;8.20;2.17;;;24.70;40.30;;;;;;5034754;28;20428;-69
2023/06/27 10:38:35;;;;;;;5.53;2.13;;;24.70;40.30;;;;;;5034712;28;20893;-69
2023/06/27 10:41:12;;;;;;;8.27;1.90;;;24.70;41.90;;;;;;5034780;28;20421;-70
2023/06/27 10:43:41;;;;;;;5.90;2.07;;;24.70;41.40;;;;;;5034863;28;20557;-69
2023/06/27 10:46:09;;;;;;;4.20;1.90;;;24.70;41.10;;;;;;5034449;28;20531;-70
2023/06/27 10:48:47;;;;;;;8.03;2.10;;;24.80;41.50;;;;;;5034667;28;20832;-69
2023/06/27 10:51:17;;;;;;;10.00;2.40;;;24.80;41.50;;;;;;5034499;28;20420;-69
2023/06/27 10:53:46;;;;;;;7.00;2.27;;;24.90;40.80;;;;;;5032785;28;20432;-70
2023/06/27 10:56:17;;;;;;;4.23;1.87;;;25.00;41.10;;;;;;5033387;28;20483;-70
2023/06/27 10:58:45;;;;;;;4.37;2.40;;;25.00;40.50;;;;;;5034324;28;20535;-69
2023/06/27 11:01:14;;;;;;;4.20;1.93;;;25.10;40.20;;;;;;5021044;28;20449;-70
2023/06/27 11:03:43;;;;;;;5.80;2.37;;;25.20;40.40;;;;;;5029639;28;20519;-69
2023/06/27 11:06:10;;;;;;;4.63;2.53;;;25.30;40.00;;;;;;5020100;28;20495;-70
2023/06/27 11:08:38;;;;;;;5.60;2.57;;;25.40;39.40;;;;;;5034303;28;20433;-70
2023/06/27 11:11:07;;;;;;;5.13;1.80;;;25.50;39.50;;;;;;5030396;28;20469;-70
2023/06/27 11:13:39;;;;;;;6.77;2.70;;;25.60;40.00;;;;;;5032697;28;20424;-69
2023/06/27 11:16:07;;;;;;;6.60;2.37;;;25.70;39.10;;;;;;5033068;28;20490;-70
2023/06/27 11:18:34;;;;;;;5.87;2.23;;;25.80;39.40;;;;;;5033003;28;20437;-70
2023/06/27 11:21:03;;;;;;;5.80;2.30;;;25.80;39.50;;;;;;5022858;28;20439;-70
2023/06/27 11:23:35;;;;;;;6.70;2.23;;;25.90;39.20;;;;;;5021934;28;20917;-70
2023/06/27 11:26:02;;;;;;;3.80;2.20;;;26.00;38.80;;;;;;5034153;28;20581;-70
2023/06/27 11:28:30;;;;;;;6.97;2.40;;;26.00;38.40;;;;;;5034102;28;20442;-70
2023/06/27 11:31:00;;;;;;;4.60;2.03;;;26.10;39.10;;;;;;5034042;28;20471;-70
2023/06/27 11:33:32;;;;;;;5.90;2.47;;;26.20;39.10;;;;;;5033945;28;20472;-69
2023/06/27 11:35:59;;;;;;;8.03;2.17;;;26.30;38.80;;;;;;5033715;28;20422;-70
2023/06/27 11:38:40;;;;;;;6.93;2.57;;;26.50;38.70;;;;;;5033998;28;20440;-69
2023/06/27 11:41:15;;;;;;;6.60;2.33;;;26.60;38.80;;;;;;5033923;28;20421;-70
2023/06/27 11:43:48;;;;;;;8.80;2.40;;;26.80;38.10;;;;;;5033483;28;20567;-69
2023/06/27 11:46:19;;;;;;;4.33;1.97;;;26.80;36.70;;;;;;5033802;28;20501;-70
2023/06/27 11:48:47;;;;;;;6.07;1.80;;;26.80;37.40;;;;;;5033833;28;20413;-70
2023/06/27 11:51:14;;;;;;;5.97;2.67;;;26.90;38.10;;;;;;5033626;28;20516;-70
2023/06/27 11:53:50;;;;;;;3.23;2.00;;;27.00;37.70;;;;;;5033839;28;20434;-69
2023/06/27 11:56:17;;;;;;;6.03;2.33;;;27.00;38.50;;;;;;5033985;28;20811;-70
2023/06/27 11:58:47;;;;;;;8.93;3.17;;;27.10;38.20;;;;;;5033396;28;20434;-69
2023/06/27 12:01:15;;;;;;;3.70;1.80;;;27.20;37.20;;;;;;5033597;28;20444;-69
2023/06/27 12:03:48;;;;;;;4.60;2.20;;;27.20;36.80;;;;;;5033787;28;20525;-69
2023/06/27 12:06:25;;;;;;;3.87;2.07;;;27.30;36.20;;;;;;5034059;28;20476;-69
2023/06/27 12:08:54;;;;;;;5.10;2.47;;;27.40;37.60;;;;;;5037738;28;20436;-69
2023/06/27 12:11:27;;;;;;;6.23;2.37;;;27.40;37.50;;;;;;5037707;28;20458;-70
2023/06/27 12:13:54;;;;;;;8.00;3.07;;;27.60;37.20;;;;;;5037395;28;20425;-70
2023/06/27 12:16:27;;;;;;;5.57;2.53;;;27.60;37.30;;;;;;5037665;28;20466;-69
2023/06/27 12:19:01;;;;;;;7.40;2.43;;;27.80;36.90;;;;;;5037217;28;20430;-69
2023/06/27 12:21:28;;;;;;;6.83;2.83;;;27.70;36.20;;;;;;5037374;28;20422;-69
2023/06/27 12:23:56;;;;;;;4.30;1.90;;;27.80;36.40;;;;;;5037150;28;20441;-69
2023/06/27 12:26:23;;;;;;;3.93;2.10;;;27.90;36.00;;;;;;5037359;28;20508;-69
2023/06/27 12:28:57;;;;;;;6.53;2.43;;;27.90;35.60;;;;;;5037353;28;20473;-70
2023/06/27 12:31:24;;;;;;;3.73;1.67;;;28.00;36.20;;;;;;5037389;28;20761;-69
2023/06/27 12:33:52;;;;;;;5.30;2.23;;;28.00;35.40;;;;;;5036854;28;20438;-70
2023/06/27 12:36:21;;;;;;;5.73;2.73;;;28.00;35.40;;;;;;5037309;28;20496;-70
2023/06/27 12:38:49;;;;;;;4.10;2.60;;;28.00;34.80;;;;;;5036818;28;20939;-70
2023/06/27 12:41:17;;;;;;;4.10;2.73;;;28.00;34.40;;;;;;5036811;28;20525;-70
2023/06/27 12:43:45;;;;;;;5.27;2.00;;;27.90;35.80;;;;;;5037205;28;20504;-69
2023/06/27 12:46:12;;;;;;;11.33;3.40;;;27.90;35.70;;;;;;5036878;28;20477;-70
2023/06/27 12:48:39;;;;;;;5.13;2.33;;;27.90;35.70;;;;;;5036976;28;20488;-70
2023/06/27 12:51:07;;;;;;;6.10;1.80;;;27.90;35.60;;;;;;5036642;28;20515;-69